Time;durP1;ratioP1;P1;durP2;ratioP2;P2;SDS_P1;SDS_P2;PMS_P1;PMS_P2;Temp;Humidity;BMP_temperature;BMP_pressure;BME280_temperature;BME280_humidity;BME280_pressure;Samples;Min_cycle;Max_cycle;Signal;HPM_P1;HPM_P2
2023/04/21 00:02:06;;;;;;;0.20;0.20;;;;;;;19.52;40.31;101066.19;5072248;28;20051;-47
2023/04/21 00:04:32;;;;;;;0.20;0.20;;;;;;;19.51;40.54;101065.34;5080180;28;20051;-46
2023/04/21 00:07:03;;;;;;;0.20;0.20;;;;;;;19.49;40.42;101052.94;5094745;28;20047;-47
2023/04/21 00:09:28;;;;;;;0.20;0.20;;;;;;;19.50;40.44;101055.41;5095510;28;20510;-47
2023/04/21 00:11:54;;;;;;;0.20;0.20;;;;;;;19.51;40.25;101057.06;5095316;28;20040;-47
2023/04/21 00:14:20;;;;;;;0.20;0.20;;;;;;;19.49;40.38;101037.19;5095935;28;20336;-47
2023/04/21 00:16:46;;;;;;;0.20;0.20;;;;;;;19.50;40.42;101040.78;5076999;28;20044;-46
2023/04/21 00:19:12;;;;;;;0.40;0.40;;;;;;;19.49;40.16;101034.44;5075294;28;20484;-45
2023/04/21 00:21:38;;;;;;;0.20;0.20;;;;;;;19.48;40.33;101027.25;5074550;28;20500;-45
2023/04/21 00:24:04;;;;;;;0.20;0.20;;;;;;;19.49;40.55;101028.91;5075397;28;20062;-50
2023/04/21 00:26:30;;;;;;;0.20;0.20;;;;;;;19.49;40.49;101019.78;5092284;28;20075;-46
2023/04/21 00:28:55;;;;;;;0.20;0.20;;;;;;;19.50;40.44;101018.69;5094258;28;20192;-46
2023/04/21 00:31:21;;;;;;;0.20;0.20;;;;;;;19.49;40.68;101009.56;5080449;28;20071;-48
2023/04/21 00:33:47;;;;;;;0.20;0.20;;;;;;;19.48;40.77;101013.44;5075507;28;20044;-48
2023/04/21 00:36:12;;;;;;;0.20;0.20;;;;;;;19.49;40.42;101003.22;5075789;28;20060;-46
2023/04/21 00:38:38;;;;;;;0.30;0.30;;;;;;;19.48;40.49;101002.41;5083748;28;20230;-45
2023/04/21 00:41:04;;;;;;;0.20;0.20;;;;;;;19.50;40.64;101002.09;5094755;28;20046;-46
2023/04/21 00:43:30;;;;;;;0.30;0.30;;;;;;;19.49;40.65;101017.03;5093921;28;20411;-46
2023/04/21 00:45:55;;;;;;;0.20;0.20;;;;;;;19.48;40.61;101002.41;5094849;28;20047;-48
2023/04/21 00:48:21;;;;;;;0.25;0.25;;;;;;;19.47;40.33;101000.75;5095264;28;20073;-46
2023/04/21 00:50:47;;;;;;;0.20;0.20;;;;;;;19.48;40.27;101004.34;5095143;28;20305;-47
2023/04/21 00:53:14;;;;;;;0.20;0.20;;;;;;;19.48;40.34;101002.41;5093595;28;20044;-47
2023/04/21 00:55:40;;;;;;;0.20;0.20;;;;;;;19.48;40.44;100996.88;5076760;28;20074;-44
2023/04/21 00:58:06;;;;;;;0.20;0.20;;;;;;;19.48;40.16;100990.53;5094798;28;20052;-49
2023/04/21 01:00:31;;;;;;;0.20;0.20;;;;;;;19.47;40.44;100992.47;5076791;28;20071;-46
2023/04/21 01:02:59;;;;;;;0.30;0.30;;;;;;;19.47;40.37;100998.00;5094430;28;20051;-44
2023/04/21 01:05:25;;;;;;;0.10;0.10;;;;;;;19.47;40.52;100998.00;5075771;28;20116;-48
2023/04/21 01:07:50;;;;;;;0.30;0.30;;;;;;;19.46;40.62;100984.44;5094947;28;20051;-48
2023/04/21 01:10:16;;;;;;;0.20;0.20;;;;;;;19.47;40.29;100994.38;5076726;28;20044;-48
2023/04/21 01:12:44;;;;;;;0.25;0.25;;;;;;;19.47;40.40;100997.13;5093532;28;20052;-44
2023/04/21 01:15:11;;;;;;;0.20;0.20;;;;;;;19.47;40.39;100994.38;5094731;28;20055;-45
2023/04/21 01:17:37;;;;;;;0.20;0.20;;;;;;;19.46;40.60;100990.78;5075898;28;20082;-46
2023/04/21 01:20:07;;;;;;;0.20;0.20;;;;;;;19.46;40.51;100988.03;5076229;28;20056;-46
2023/04/21 01:22:36;;;;;;;0.20;0.20;;;;;;;19.46;40.48;100996.31;5094595;28;20054;-45
2023/04/21 01:25:02;;;;;;;0.20;0.20;;;;;;;19.45;40.51;100986.38;5074907;28;20559;-43
2023/04/21 01:27:28;;;;;;;0.25;0.25;;;;;;;19.46;40.25;100982.50;5094439;28;20052;-44
2023/04/21 01:29:54;;;;;;;0.20;0.20;;;;;;;19.46;40.43;100987.19;5079284;28;20412;-46
2023/04/21 01:32:22;;;;;;;0.20;0.20;;;;;;;19.45;40.63;100980.84;5095598;28;20070;-45
2023/04/21 01:34:49;;;;;;;0.20;0.20;;;;;;;19.44;40.35;100973.69;5094271;28;20138;-48
2023/04/21 01:37:16;;;;;;;0.20;0.20;;;;;;;19.44;40.53;100972.88;5059368;28;20047;-47
2023/04/21 01:39:44;;;;;;;0.20;0.20;;;;;;;19.45;40.61;100966.22;5075922;28;20044;-45
2023/04/21 01:42:10;;;;;;;0.10;0.10;;;;;;;19.45;40.38;100966.22;5091160;28;20082;-46
2023/04/21 01:44:36;;;;;;;0.20;0.20;;;;;;;19.45;40.21;100971.75;5065722;28;20076;-45
2023/04/21 01:47:02;;;;;;;0.20;0.20;;;;;;;19.44;40.38;100973.69;5088959;28;20462;-46
2023/04/21 01:49:28;;;;;;;0.20;0.20;;;;;;;19.44;40.54;100981.16;5055603;28;20055;-46
2023/04/21 01:51:54;;;;;;;0.20;0.20;;;;;;;19.45;40.27;100980.03;5073213;28;20123;-47
2023/04/21 01:54:19;;;;;;;0.20;0.20;;;;;;;19.44;40.45;100970.09;5071784;28;20081;-44
2023/04/21 01:56:45;;;;;;;0.20;0.20;;;;;;;19.44;40.69;100978.38;5092920;28;20054;-47
2023/04/21 01:59:11;;;;;;;0.20;0.20;;;;;;;19.44;40.36;100979.22;5075643;28;20677;-45
2023/04/21 02:01:36;;;;;;;0.20;0.20;;;;;;;19.44;40.39;100979.22;5093742;28;20039;-46
2023/04/21 02:04:03;;;;;;;0.20;0.20;;;;;;;19.44;40.44;100978.38;5068889;28;20440;-45
2023/04/21 02:06:30;;;;;;;0.20;0.20;;;;;;;19.43;40.39;100972.03;5057450;28;20847;-45
2023/04/21 02:08:57;;;;;;;0.20;0.20;;;;;;;19.43;40.48;100977.56;5093997;28;20806;-46
2023/04/21 02:11:24;;;;;;;0.20;0.20;;;;;;;19.44;40.37;100975.63;5093484;28;20047;-44
2023/04/21 02:13:52;;;;;;;0.28;0.28;;;;;;;19.43;40.20;100976.72;5092640;28;20435;-47
2023/04/21 02:16:19;;;;;;;0.20;0.20;;;;;;;19.43;40.64;100969.28;5092476;28;20127;-46
2023/04/21 02:18:45;;;;;;;0.30;0.30;;;;;;;19.43;40.60;100974.81;5093089;28;20424;-46
2023/04/21 02:21:11;;;;;;;0.20;0.20;;;;;;;19.42;40.47;100978.66;5093459;28;20550;-45
2023/04/21 02:23:37;;;;;;;0.20;0.20;;;;;;;19.43;40.48;100976.72;5074430;28;20043;-46
2023/04/21 02:26:03;;;;;;;0.20;0.20;;;;;;;19.42;40.79;100973.13;5091658;28;20467;-44
2023/04/21 02:28:30;;;;;;;0.20;0.20;;;;;;;19.41;40.59;100965.94;5091962;28;20236;-48
2023/04/21 02:30:56;;;;;;;0.20;0.20;;;;;;;19.42;40.26;100964.00;5084428;28;20192;-45
2023/04/21 02:33:21;;;;;;;0.20;0.20;;;;;;;19.41;40.46;100965.94;5074333;28;20048;-45
2023/04/21 02:35:47;;;;;;;0.20;0.20;;;;;;;19.42;40.43;100964.00;5092572;28;20075;-44
2023/04/21 02:38:13;;;;;;;0.20;0.20;;;;;;;19.41;40.48;100957.66;5074704;28;20128;-47
2023/04/21 02:40:39;;;;;;;0.20;0.20;;;;;;;19.41;40.50;100954.91;5092501;28;20194;-45
2023/04/21 02:43:05;;;;;;;0.30;0.30;;;;;;;19.41;40.53;100952.16;5091721;28;20089;-47
2023/04/21 02:45:31;;;;;;;0.20;0.20;;;;;;;19.40;40.65;100953.25;5092293;28;20113;-45
2023/04/21 02:47:58;;;;;;;0.20;0.20;;;;;;;19.41;40.21;100954.09;5092227;28;20122;-46
2023/04/21 02:50:25;;;;;;;0.20;0.20;;;;;;;19.40;40.82;100953.25;5093057;28;20568;-48
2023/04/21 02:52:50;;;;;;;0.20;0.20;;;;;;;19.40;40.50;100958.78;5073842;28;20055;-44
2023/04/21 02:55:16;;;;;;;0.20;0.20;;;;;;;19.39;40.36;100965.41;5092753;28;20055;-45
2023/04/21 02:57:42;;;;;;;0.20;0.20;;;;;;;19.40;40.64;100961.53;5083077;28;20055;-45
2023/04/21 03:00:10;;;;;;;0.20;0.20;;;;;;;19.39;40.58;100957.13;5080375;28;20454;-46
2023/04/21 03:02:36;;;;;;;0.20;0.20;;;;;;;19.41;40.41;100965.94;5084408;28;20075;-47
2023/04/21 03:05:03;;;;;;;0.20;0.20;;;;;;;19.39;40.71;100965.41;5078163;28;20047;-44
2023/04/21 03:07:28;;;;;;;0.20;0.20;;;;;;;19.40;40.57;100964.31;5072394;28;20496;-45
2023/04/21 03:09:54;;;;;;;0.20;0.20;;;;;;;19.40;40.63;100963.47;5072753;28;20314;-44
2023/04/21 03:12:20;;;;;;;0.20;0.20;;;;;;;19.39;40.26;100965.41;5072847;28;20044;-45
2023/04/21 03:14:46;;;;;;;0.20;0.20;;;;;;;19.39;40.37;100972.88;5074787;28;20070;-46
2023/04/21 03:17:11;;;;;;;0.20;0.20;;;;;;;19.39;40.36;100970.94;5084243;28;20048;-45
2023/04/21 03:19:37;;;;;;;0.20;0.20;;;;;;;19.39;40.40;100975.66;5072288;28;20481;-48
2023/04/21 03:22:03;;;;;;;0.20;0.20;;;;;;;19.38;40.75;100974.78;5072361;28;20044;-48
2023/04/21 03:24:29;;;;;;;0.30;0.30;;;;;;;19.39;40.46;100967.34;5072062;28;20047;-46
2023/04/21 03:26:55;;;;;;;0.20;0.20;;;;;;;19.38;40.81;100966.50;5090556;28;20051;-45
2023/04/21 03:29:21;;;;;;;0.20;0.20;;;;;;;19.38;40.34;100966.50;5092414;28;20516;-46
2023/04/21 03:31:47;;;;;;;0.30;0.30;;;;;;;19.39;40.45;100975.66;5091363;28;20043;-48
2023/04/21 03:34:13;;;;;;;0.20;0.20;;;;;;;19.38;40.67;100971.19;5090744;28;20046;-45
2023/04/21 03:36:39;;;;;;;0.20;0.20;;;;;;;19.37;40.58;100967.63;5088936;28;20052;-46
2023/04/21 03:39:05;;;;;;;0.20;0.20;;;;;;;19.39;40.56;100972.88;5095460;28;20519;-45
2023/04/21 03:41:46;;;;;;;0.20;0.20;;;;;;;19.37;40.65;100980.59;5090454;28;20043;-45
2023/04/21 03:44:12;;;;;;;0.20;0.20;;;;;;;19.38;40.58;100976.72;5067259;28;20043;-45
2023/04/21 03:46:38;;;;;;;0.20;0.20;;;;;;;19.38;40.67;100976.72;5090008;28;20056;-46
2023/04/21 03:49:03;;;;;;;0.20;0.20;;;;;;;19.38;40.68;100979.50;5089363;28;20575;-47
2023/04/21 03:51:31;;;;;;;0.30;0.30;;;;;;;19.37;40.31;100984.19;5096161;28;20369;-46
2023/04/21 03:53:57;;;;;;;0.28;0.28;;;;;;;19.37;40.67;100980.59;5080924;28;20074;-47
2023/04/21 03:56:22;;;;;;;0.25;0.25;;;;;;;19.36;40.41;100979.78;5089197;28;20475;-46
2023/04/21 03:58:48;;;;;;;0.20;0.20;;;;;;;19.37;40.51;100972.31;5095559;28;20043;-45
2023/04/21 04:01:14;;;;;;;0.20;0.20;;;;;;;19.37;40.38;100970.38;5095334;28;20488;-47
2023/04/21 04:03:40;;;;;;;0.20;0.20;;;;;;;19.37;40.60;100972.31;5094360;28;20047;-44
2023/04/21 04:06:06;;;;;;;0.20;0.20;;;;;;;19.36;40.60;100977.03;5094397;28;20043;-46
2023/04/21 04:08:31;;;;;;;0.30;0.30;;;;;;;19.37;40.52;100977.84;5095759;28;20047;-46
2023/04/21 04:10:57;;;;;;;0.20;0.20;;;;;;;19.37;40.84;100975.09;5095620;28;20039;-45
2023/04/21 04:13:25;;;;;;;0.20;0.20;;;;;;;19.37;40.69;100977.84;5095729;28;20046;-44
2023/04/21 04:15:51;;;;;;;0.20;0.20;;;;;;;19.36;40.63;100977.03;5094371;28;20426;-47
2023/04/21 04:18:16;;;;;;;0.20;0.20;;;;;;;19.36;40.50;100970.66;5089463;28;20580;-45
2023/04/21 04:20:42;;;;;;;0.20;0.20;;;;;;;19.36;40.42;100974.25;5095189;28;20255;-44
2023/04/21 04:23:08;;;;;;;0.20;0.20;;;;;;;19.36;40.51;100965.16;5095136;28;20411;-44
2023/04/21 04:25:33;;;;;;;0.20;0.20;;;;;;;19.36;40.77;100968.75;5095019;28;20047;-45
2023/04/21 04:27:59;;;;;;;0.20;0.20;;;;;;;19.35;40.42;100972.63;5095143;28;20199;-45
2023/04/21 04:30:27;;;;;;;0.20;0.20;;;;;;;19.36;40.58;100973.44;5094327;28;20396;-46
2023/04/21 04:32:53;;;;;;;0.20;0.20;;;;;;;19.37;40.43;100972.31;5094901;28;20077;-45
2023/04/21 04:35:18;;;;;;;0.30;0.30;;;;;;;19.34;40.35;100973.69;5094295;28;20280;-46
2023/04/21 04:37:44;;;;;;;0.20;0.20;;;;;;;19.35;40.57;100975.38;5094355;28;20100;-46
2023/04/21 04:40:12;;;;;;;0.20;0.20;;;;;;;19.36;40.52;100981.72;5072926;28;20339;-45
2023/04/21 04:42:38;;;;;;;0.20;0.20;;;;;;;19.35;40.62;100974.56;5092626;28;20044;-45
2023/04/21 04:45:07;;;;;;;0.30;0.30;;;;;;;19.35;40.40;100977.31;5094479;28;20401;-46
2023/04/21 04:47:34;;;;;;;;;;;;;;;19.34;40.64;100972.88;5085469;28;20563;-49
2023/04/21 04:49:59;;;;;;;0.20;0.20;;;;;;;19.33;40.68;100974.81;5080810;28;20483;-46
2023/04/21 04:52:25;;;;;;;0.20;0.20;;;;;;;19.34;40.60;100967.34;5092530;28;20158;-46
2023/04/21 04:54:51;;;;;;;0.20;0.20;;;;;;;19.34;40.44;100972.88;5093620;28;20113;-44
2023/04/21 04:57:16;;;;;;;0.20;0.20;;;;;;;19.33;40.37;100976.75;5092511;28;20523;-45
2023/04/21 04:59:42;;;;;;;0.20;0.20;;;;;;;19.33;40.63;100974.81;5092558;28;20054;-45
2023/04/21 05:02:09;;;;;;;0.20;0.20;;;;;;;19.34;40.71;100978.41;5093664;28;20075;-48
2023/04/21 05:04:35;;;;;;;0.20;0.20;;;;;;;19.33;40.38;100974.00;5093312;28;20512;-49
2023/04/21 05:07:00;;;;;;;0.20;0.20;;;;;;;19.34;40.62;100979.22;5086108;28;20043;-44
2023/04/21 05:09:26;;;;;;;0.20;0.20;;;;;;;19.34;40.41;100984.75;5075104;28;20043;-45
2023/04/21 05:11:52;;;;;;;0.20;0.20;;;;;;;19.34;40.64;100992.19;5092749;28;20039;-46
2023/04/21 05:14:17;;;;;;;0.20;0.20;;;;;;;19.34;40.78;100983.91;5091901;28;20100;-44
2023/04/21 05:16:43;;;;;;;0.20;0.20;;;;;;;19.33;40.58;100991.38;5093222;28;20530;-44
2023/04/21 05:19:09;;;;;;;0.20;0.20;;;;;;;19.34;40.57;100994.97;5088295;28;20371;-46
2023/04/21 05:21:35;;;;;;;0.20;0.20;;;;;;;19.32;40.52;100992.50;5088694;28;20491;-47
2023/04/21 05:24:01;;;;;;;0.20;0.20;;;;;;;19.31;40.27;100993.59;5091411;28;20202;-45
2023/04/21 05:26:27;;;;;;;0.20;0.20;;;;;;;19.27;40.81;100992.50;5077931;28;20083;-47
2023/04/21 05:28:55;;;;;;;0.20;0.20;;;;;;;19.28;40.48;100994.97;5074217;28;20630;-46
2023/04/21 05:31:21;;;;;;;0.25;0.25;;;;;;;19.25;40.70;100995.53;5092172;28;20051;-45
2023/04/21 05:33:46;;;;;;;0.30;0.30;;;;;;;19.25;40.38;100989.19;5072829;28;20634;-45
2023/04/21 05:36:12;;;;;;;0.20;0.20;;;;;;;19.25;40.95;100986.44;5079037;28;20113;-46
2023/04/21 05:38:38;;;;;;;0.30;0.30;;;;;;;19.23;40.71;100992.25;5087520;28;20035;-44
2023/04/21 05:41:04;;;;;;;0.20;0.20;;;;;;;19.25;40.64;100992.78;5090360;28;20311;-46
2023/04/21 05:43:32;;;;;;;0.20;0.20;;;;;;;19.26;40.68;100994.44;5089621;28;20093;-44
2023/04/21 05:45:59;;;;;;;0.20;0.20;;;;;;;19.26;40.88;101001.91;5087300;28;20570;-45
2023/04/21 05:48:24;;;;;;;0.20;0.20;;;;;;;19.25;40.75;100992.78;5067878;28;20723;-48
2023/04/21 05:50:50;;;;;;;0.22;0.22;;;;;;;19.25;40.89;100991.94;5081305;28;20050;-46
2023/04/21 05:53:16;;;;;;;0.20;0.20;;;;;;;19.26;40.87;100999.16;5082808;28;20096;-44
2023/04/21 05:55:41;;;;;;;0.20;0.20;;;;;;;19.26;40.43;100999.97;5071574;28;20341;-45
2023/04/21 05:58:07;;;;;;;0.20;0.20;;;;;;;19.24;40.90;101002.16;5083370;28;20044;-47
2023/04/21 06:00:33;;;;;;;0.20;0.20;;;;;;;19.27;40.67;100995.28;5076398;28;20415;-45
2023/04/21 06:02:58;;;;;;;0.20;0.20;;;;;;;19.23;40.93;100995.00;5089364;28;20050;-46
2023/04/21 06:05:24;;;;;;;0.20;0.20;;;;;;;19.22;40.92;100996.13;5067249;28;20048;-46
2023/04/21 06:07:50;;;;;;;0.20;0.20;;;;;;;19.23;40.93;100997.75;5062123;28;20445;-44
2023/04/21 06:10:16;;;;;;;0.20;0.20;;;;;;;19.26;40.77;100999.16;5085493;28;20058;-46
2023/04/21 06:12:42;;;;;;;0.20;0.20;;;;;;;19.27;40.87;100998.84;5087337;28;20212;-47
2023/04/21 06:15:08;;;;;;;0.22;0.22;;;;;;;19.27;40.90;100989.75;5084550;28;20314;-45
2023/04/21 06:17:33;;;;;;;0.20;0.20;;;;;;;19.27;41.22;100984.22;5087655;28;20487;-46
2023/04/21 06:19:59;;;;;;;0.30;0.30;;;;;;;19.27;40.95;100987.00;5089756;28;20062;-46
2023/04/21 06:22:26;;;;;;;0.30;0.30;;;;;;;19.27;41.00;100984.22;5084263;28;20143;-45
2023/04/21 06:24:52;;;;;;;0.30;0.30;;;;;;;19.26;41.07;100982.59;5071000;28;20362;-45
2023/04/21 06:27:17;;;;;;;0.30;0.30;;;;;;;19.27;41.07;100990.56;5089083;28;20051;-45
2023/04/21 06:29:43;;;;;;;0.30;0.30;;;;;;;19.27;41.00;100987.00;5069559;28;20032;-49
2023/04/21 06:32:10;;;;;;;0.20;0.20;;;;;;;19.26;40.71;100988.94;5077726;28;20052;-45
2023/04/21 06:34:35;;;;;;;0.30;0.30;;;;;;;19.28;40.78;100996.91;5082703;28;20047;-47
2023/04/21 06:37:01;;;;;;;0.30;0.30;;;;;;;19.27;40.93;100998.03;5066373;28;20047;-44
2023/04/21 06:39:27;;;;;;;0.22;0.22;;;;;;;19.26;40.94;100990.88;5069052;28;20047;-46
2023/04/21 06:41:53;;;;;;;0.32;0.32;;;;;;;19.26;41.05;100997.22;5064242;28;20484;-46
2023/04/21 06:44:19;;;;;;;0.30;0.30;;;;;;;19.25;41.02;100995.53;5071518;28;20058;-45
2023/04/21 06:46:46;;;;;;;0.20;0.20;;;;;;;19.26;41.14;100999.16;5069043;28;20126;-45
2023/04/21 06:49:12;;;;;;;0.20;0.20;;;;;;;19.25;40.77;100991.94;5079984;28;20167;-45
2023/04/21 06:51:37;;;;;;;0.20;0.20;;;;;;;19.25;40.59;100992.78;5053285;28;20115;-45
2023/04/21 06:54:04;;;;;;;0.30;0.30;;;;;;;19.24;40.92;100977.31;5047194;28;20044;-46
2023/04/21 06:56:30;;;;;;;0.20;0.20;;;;;;;19.25;40.66;100978.97;5066696;28;20075;-44
2023/04/21 06:58:56;;;;;;;0.20;0.20;;;;;;;19.26;41.08;100977.88;5056545;28;20047;-44
2023/04/21 07:01:23;;;;;;;0.20;0.20;;;;;;;19.27;41.22;100987.00;5067728;28;20048;-45
2023/04/21 07:03:50;;;;;;;0.30;0.30;;;;;;;19.19;43.39;100988.38;5048651;28;20595;-46
2023/04/21 07:06:15;;;;;;;0.20;0.20;;;;;;;19.25;42.29;100998.28;5069347;28;20165;-47
2023/04/21 07:08:41;;;;;;;0.30;0.30;;;;;;;19.28;42.08;100988.63;5060677;28;20670;-45
2023/04/21 07:11:07;;;;;;;0.20;0.20;;;;;;;19.27;42.18;100995.28;5071905;28;20039;-46
2023/04/21 07:13:32;;;;;;;0.20;0.20;;;;;;;19.29;42.13;100998.56;5069187;28;20052;-46
2023/04/21 07:15:58;;;;;;;0.20;0.20;;;;;;;19.28;41.39;100992.22;5051788;28;20480;-45
2023/04/21 07:18:24;;;;;;;0.20;0.20;;;;;;;19.28;41.98;100985.88;5079295;28;20371;-46
2023/04/21 07:20:50;;;;;;;0.30;0.30;;;;;;;19.28;41.69;100985.88;5079873;28;20047;-45
2023/04/21 07:23:15;;;;;;;0.28;0.28;;;;;;;19.28;41.58;100983.13;5078281;28;20480;-48
2023/04/21 07:25:41;;;;;;;0.20;0.20;;;;;;;19.29;42.15;100974.53;5078954;28;20040;-46
2023/04/21 07:28:07;;;;;;;0.30;0.30;;;;;;;19.30;41.93;100980.91;5070316;28;20047;-48
2023/04/21 07:30:33;;;;;;;0.20;0.20;;;;;;;19.30;41.53;100989.19;5073042;28;20412;-46
2023/04/21 07:32:59;;;;;;;0.30;0.30;;;;;;;19.30;41.57;100986.44;5077387;28;20861;-44
2023/04/21 07:35:25;;;;;;;0.20;0.20;;;;;;;19.33;42.50;100982.28;5077848;28;20114;-51
2023/04/21 07:37:51;;;;;;;0.30;0.30;;;;;;;19.31;41.98;100985.31;5055599;28;20051;-44
2023/04/21 07:40:16;;;;;;;0.20;0.20;;;;;;;19.34;41.62;100989.44;5075858;28;20082;-45
2023/04/21 07:42:42;;;;;;;0.20;0.20;;;;;;;19.32;41.86;100980.63;5076169;28;20044;-45
2023/04/21 07:45:08;;;;;;;0.30;0.30;;;;;;;19.33;41.37;100982.28;5063342;28;20062;-47
2023/04/21 07:47:34;;;;;;;0.20;0.20;;;;;;;19.34;41.88;100978.41;5062890;28;20039;-45
2023/04/21 07:50:00;;;;;;;0.20;0.20;;;;;;;19.33;42.34;100972.06;5074712;28;20400;-45
2023/04/21 07:52:25;;;;;;;0.20;0.20;;;;;;;19.33;41.94;100980.34;5072832;28;20044;-45
2023/04/21 07:54:51;;;;;;;0.30;0.30;;;;;;;19.34;42.33;100976.47;5068401;28;20062;-45
2023/04/21 07:57:17;;;;;;;0.20;0.20;;;;;;;19.34;42.38;100976.47;5073876;28;20867;-44
2023/04/21 07:59:43;;;;;;;0.20;0.20;;;;;;;19.35;42.03;100980.06;5071803;28;20044;-45
2023/04/21 08:02:08;;;;;;;0.30;0.30;;;;;;;19.35;41.69;100982.84;5068591;28;20047;-45
2023/04/21 08:04:34;;;;;;;0.20;0.20;;;;;;;19.28;43.43;100981.19;5068780;28;20249;-44
2023/04/21 08:07:00;;;;;;;0.20;0.20;;;;;;;19.36;42.22;100984.47;5068840;28;21042;-44
2023/04/21 08:09:27;;;;;;;0.20;0.20;;;;;;;19.39;41.99;100986.69;5072122;28;20131;-45
2023/04/21 08:11:53;;;;;;;0.20;0.20;;;;;;;19.39;41.91;100984.75;5074283;28;20063;-45
2023/04/21 08:14:20;;;;;;;0.20;0.20;;;;;;;19.38;42.65;100985.84;5071666;28;20163;-46
2023/04/21 08:16:46;;;;;;;0.20;0.20;;;;;;;19.39;42.72;100972.88;5062481;28;20070;-45
2023/04/21 08:19:11;;;;;;;0.20;0.20;;;;;;;19.39;42.10;100982.00;5075946;28;20480;-45
2023/04/21 08:21:38;;;;;;;0.20;0.20;;;;;;;19.39;42.44;100979.22;5078325;28;20186;-45
2023/04/21 08:24:04;;;;;;;0.20;0.20;;;;;;;19.39;42.48;100975.66;5072968;28;20055;-44
2023/04/21 08:26:32;;;;;;;0.20;0.20;;;;;;;19.40;42.37;100982.81;5062683;28;20043;-45
2023/04/21 08:28:58;;;;;;;0.30;0.30;;;;;;;19.40;42.52;100982.81;5079600;28;20078;-45
2023/04/21 08:31:24;;;;;;;0.20;0.20;;;;;;;19.39;42.77;100984.75;5070490;28;20043;-46
2023/04/21 08:33:50;;;;;;;0.20;0.20;;;;;;;19.40;42.33;100989.16;5058935;28;20040;-46
2023/04/21 08:36:27;;;;;;;0.20;0.20;;;;;;;19.39;42.10;100990.28;5065781;28;20968;-48
2023/04/21 08:38:55;;;;;;;0.20;0.20;;;;;;;19.39;42.61;100984.75;5050675;28;20124;-45
2023/04/21 08:41:21;;;;;;;0.20;0.20;;;;;;;19.40;42.66;100991.91;5070417;28;20455;-45
2023/04/21 08:43:47;;;;;;;0.20;0.20;;;;;;;19.40;42.50;100982.81;5056868;28;20051;-46
2023/04/21 08:46:13;;;;;;;0.20;0.20;;;;;;;19.39;42.81;100984.75;5069604;28;20076;-45
2023/04/21 08:48:39;;;;;;;0.25;0.25;;;;;;;19.39;42.85;100979.22;5064581;28;20464;-46
2023/04/21 08:51:08;;;;;;;0.30;0.30;;;;;;;19.39;42.53;100975.66;5077082;28;20519;-46
2023/04/21 08:53:35;;;;;;;0.30;0.30;;;;;;;19.38;42.60;100980.31;5051138;28;20201;-46
2023/04/21 08:56:02;;;;;;;0.20;0.20;;;;;;;19.40;42.33;100977.28;5080281;28;20131;-45
2023/04/21 08:58:37;;;;;;;0.20;0.20;;;;;;;19.39;42.16;100975.66;5074075;28;20500;-45
2023/04/21 09:01:02;;;;;;;0.20;0.20;;;;;;;19.39;43.07;100981.16;5075750;28;20851;-45
2023/04/21 09:03:28;;;;;;;0.20;0.20;;;;;;;19.41;42.09;100973.41;5074499;28;20039;-45
2023/04/21 09:05:57;;;;;;;0.20;0.20;;;;;;;19.40;42.78;100974.53;5057802;28;20039;-44
2023/04/21 09:08:26;;;;;;;0.20;0.20;;;;;;;19.38;43.14;100973.97;5052012;28;20047;-45
2023/04/21 09:10:51;;;;;;;0.20;0.20;;;;;;;19.38;43.02;100965.69;5080455;28;20120;-46
2023/04/21 09:13:22;;;;;;;0.20;0.20;;;;;;;19.38;43.21;100962.91;5085735;28;20035;-47
2023/04/21 09:15:49;;;;;;;0.20;0.20;;;;;;;19.37;42.96;100969.56;5086995;28;20078;-46
2023/04/21 09:18:18;;;;;;;0.20;0.20;;;;;;;19.38;42.92;100972.03;5062433;28;20305;-46
2023/04/21 09:20:46;;;;;;;0.20;0.20;;;;;;;19.40;42.66;100971.78;5068068;28;20526;-47
2023/04/21 09:23:11;;;;;;;0.20;0.20;;;;;;;19.41;42.93;100967.88;5057725;28;20052;-43
2023/04/21 09:25:39;;;;;;;0.20;0.20;;;;;;;19.40;42.50;100967.06;5059309;28;20059;-44
2023/04/21 09:28:07;;;;;;;0.20;0.20;;;;;;;19.42;42.57;100969.53;5078614;28;20059;-46
2023/04/21 09:30:34;;;;;;;;;;;;;;;19.40;42.21;100971.78;5061827;28;20450;-45
2023/04/21 09:33:00;;;;;;;0.20;0.20;;;;;;;19.40;42.28;100975.34;5078436;28;19931;-45
2023/04/21 09:35:28;;;;;;;0.20;0.20;;;;;;;19.40;42.49;100964.31;5077192;28;20048;-46
2023/04/21 09:37:53;;;;;;;0.20;0.20;;;;;;;19.43;42.36;100965.66;5074649;28;20059;-45
2023/04/21 09:40:19;;;;;;;0.20;0.20;;;;;;;19.40;42.34;100972.59;5066180;28;20052;-45
2023/04/21 09:42:45;;;;;;;0.30;0.30;;;;;;;19.39;41.73;100970.94;5075255;28;20100;-45
2023/04/21 09:45:12;;;;;;;0.20;0.20;;;;;;;19.40;41.63;100969.00;5072165;28;20040;-47
2023/04/21 09:47:42;;;;;;;0.20;0.20;;;;;;;19.39;42.25;100961.84;5059613;28;20344;-46
2023/04/21 09:50:10;;;;;;;0.30;0.30;;;;;;;19.40;42.16;100963.47;5075441;28;20074;-46
2023/04/21 09:52:39;;;;;;;0.30;0.30;;;;;;;19.38;42.00;100957.41;5078772;28;20105;-44
2023/04/21 09:55:09;;;;;;;0.20;0.20;;;;;;;19.38;41.75;100952.69;5056981;28;20059;-45
2023/04/21 09:57:38;;;;;;;0.30;0.30;;;;;;;19.39;42.04;100950.78;5064064;28;20054;-47
2023/04/21 10:00:08;;;;;;;0.30;0.30;;;;;;;19.39;41.60;100945.25;5074291;28;20507;-46
2023/04/21 10:02:35;;;;;;;0.30;0.30;;;;;;;19.38;41.66;100938.06;5068157;28;20047;-47
2023/04/21 10:05:03;;;;;;;0.20;0.20;;;;;;;19.38;41.54;100941.66;5061068;28;20500;-45
2023/04/21 10:07:29;;;;;;;0.30;0.30;;;;;;;19.38;41.93;100938.06;5080372;28;20073;-45
2023/04/21 10:09:55;;;;;;;0.20;0.20;;;;;;;19.39;41.63;100939.75;5076842;28;20394;-45
2023/04/21 10:12:24;;;;;;;0.20;0.20;;;;;;;19.39;41.60;100935.03;5061185;28;20575;-46
2023/04/21 10:14:52;;;;;;;0.20;0.20;;;;;;;19.04;44.78;100928.53;5061056;28;20954;-45
2023/04/21 10:17:21;;;;;;;0.20;0.20;;;;;;;19.25;43.11;100931.22;5071305;28;20514;-46
2023/04/21 10:19:50;;;;;;;0.20;0.20;;;;;;;19.32;42.46;100926.22;5059672;28;20818;-45
2023/04/21 10:22:27;;;;;;;0.20;0.20;;;;;;;19.34;42.50;100921.22;5079749;28;20075;-46
2023/04/21 10:24:55;;;;;;;0.20;0.20;;;;;;;19.37;42.30;100933.66;5061122;28;20044;-46
2023/04/21 10:27:38;;;;;;;;;;;;;;;19.37;42.82;100926.19;5074753;28;20059;-45
2023/04/21 10:30:21;;;;;;;0.20;0.20;;;;;;;19.38;43.36;100927.03;5074055;28;19961;-50
2023/04/21 10:32:47;;;;;;;0.20;0.20;;;;;;;19.36;43.29;100918.22;5059448;28;20054;-47
2023/04/21 10:35:21;;;;;;;0.20;0.20;;;;;;;19.37;43.37;100914.31;5055722;28;20047;-49
2023/04/21 10:37:48;;;;;;;0.20;0.20;;;;;;;19.36;43.45;100907.97;5073382;28;20085;-47
2023/04/21 10:40:34;;;;;;;0.20;0.20;;;;;;;19.37;43.21;100903.28;5048256;28;20036;-47
2023/04/21 10:43:44;;;;;;;0.20;0.20;;;;;;;19.38;42.75;100902.16;5058429;28;20230;-45
2023/04/21 10:46:35;;;;;;;0.20;0.20;;;;;;;19.39;42.76;100890.03;5060176;28;20517;-45
2023/04/21 10:49:06;;;;;;;0.20;0.20;;;;;;;19.39;42.93;100879.00;5064488;28;20036;-47
2023/04/21 10:51:32;;;;;;;0.20;0.20;;;;;;;19.38;42.98;100882.84;5069233;28;20448;-46
2023/04/21 10:53:57;;;;;;;0.20;0.20;;;;;;;19.39;42.78;100876.22;5080472;28;20047;-45
2023/04/21 10:56:24;;;;;;;0.20;0.20;;;;;;;19.39;42.76;100870.69;5075497;28;20178;-46
2023/04/21 10:58:51;;;;;;;0.30;0.30;;;;;;;19.40;42.95;100869.59;5084710;28;20055;-46
2023/04/21 11:01:17;;;;;;;0.20;0.20;;;;;;;19.39;42.73;100868.75;5068327;28;20055;-45
2023/04/21 11:03:43;;;;;;;0.20;0.20;;;;;;;19.41;42.87;100865.72;5083350;28;20058;-45
2023/04/21 11:06:17;;;;;;;0.30;0.30;;;;;;;19.40;43.05;100862.13;5084655;28;20531;-44
2023/04/21 11:08:58;;;;;;;0.20;0.20;;;;;;;19.34;43.69;100848.59;5080177;28;20051;-46
2023/04/21 11:11:25;;;;;;;0.20;0.20;;;;;;;19.38;43.15;100839.47;5085874;28;20073;-44
2023/04/21 11:13:51;;;;;;;0.20;0.20;;;;;;;19.40;43.56;100851.06;5078770;28;20135;-45
2023/04/21 11:16:19;;;;;;;0.38;0.38;;;;;;;19.36;43.88;100844.47;5076532;28;20543;-45
2023/04/21 11:18:45;;;;;;;0.30;0.30;;;;;;;19.39;43.71;100838.38;5082560;28;20801;-47
2023/04/21 11:23:48;;;;;;;0.30;0.30;;;;;;;19.38;44.08;100828.44;5146040;27;20112;-43
2023/04/21 11:26:14;;;;;;;0.20;0.20;;;;;;;19.37;43.79;100829.53;5100579;27;20595;-43
2023/04/21 11:28:41;;;;;;;0.20;0.20;;;;;;;19.39;43.48;100821.00;5130068;27;20402;-44